createdAt,value
2018-01-13T00:00:51.162Z,46.83
2018-01-13T00:03:19.452Z,47.60
2018-01-13T00:05:47.726Z,47.22
2018-01-13T00:08:15.980Z,50.67
2018-01-13T00:10:43.534Z,40.28
2018-01-13T00:13:11.039Z,42.05
2018-01-13T00:15:38.561Z,36.60
2018-01-13T00:18:06.056Z,42.10
2018-01-13T00:20:33.578Z,34.90
2018-01-13T00:23:01.090Z,41.47
2018-01-13T00:25:28.632Z,39.35
2018-01-13T00:27:56.888Z,38.72
2018-01-13T00:30:24.390Z,39.22
2018-01-13T00:32:51.918Z,33.13
2018-01-13T00:35:20.213Z,45.67
2018-01-13T00:37:47.765Z,42.95
2018-01-13T00:40:15.269Z,45.28
2018-01-13T00:42:42.802Z,40.33
2018-01-13T00:45:10.305Z,45.65
2018-01-13T00:47:37.821Z,42.65
2018-01-13T00:50:05.315Z,40.17
2018-01-13T00:52:32.821Z,42.03
2018-01-13T00:55:00.363Z,42.78
2018-01-13T00:57:28.632Z,39.30
2018-01-13T00:59:56.151Z,42.03
2018-01-13T01:02:23.664Z,41.70
2018-01-13T01:04:51.963Z,36.10
2018-01-13T01:07:19.476Z,37.40
2018-01-13T01:09:46.988Z,42.50
2018-01-13T01:12:14.501Z,38.40
2018-01-13T01:14:42.005Z,49.45
2018-01-13T01:17:09.536Z,49.20
2018-01-13T01:19:37.817Z,40.45
2018-01-13T01:22:06.104Z,38.92
2018-01-13T01:24:34.393Z,37.03
2018-01-13T01:27:01.916Z,33.97
2018-01-13T01:29:29.430Z,39.85
2018-01-13T01:31:56.957Z,32.38
2018-01-13T01:34:25.216Z,36.05
2018-01-13T01:36:52.730Z,39.28
2018-01-13T01:39:20.256Z,36.75
2018-01-13T01:41:48.528Z,34.58
2018-01-13T01:44:16.811Z,39.90
2018-01-13T01:46:45.090Z,34.30
2018-01-13T01:49:13.380Z,46.45
2018-01-13T01:51:40.888Z,38.20
2018-01-13T01:54:08.415Z,35.83
2018-01-13T01:56:35.936Z,39.88
2018-01-13T01:59:04.206Z,44.67
2018-01-13T02:01:31.747Z,32.13
2018-01-13T02:03:59.265Z,33.47
2018-01-13T02:06:26.792Z,43.75
2018-01-13T02:08:55.065Z,38.25
2018-01-13T02:11:23.368Z,35.28
2018-01-13T02:13:50.875Z,31.37
2018-01-13T02:16:18.413Z,31.75
2018-01-13T02:18:45.919Z,34.40
2018-01-13T02:21:13.440Z,37.20
2018-01-13T02:23:40.943Z,36.40
2018-01-13T02:26:09.244Z,47.60
2018-01-13T02:28:36.752Z,34.85
2018-01-13T02:31:04.252Z,33.88
2018-01-13T02:33:31.785Z,35.92
2018-01-13T02:35:59.292Z,38.47
2018-01-13T02:38:26.832Z,36.97
2018-01-13T02:40:55.108Z,34.38
2018-01-13T02:43:23.404Z,33.63
2018-01-13T02:45:50.910Z,30.95
2018-01-13T02:48:18.444Z,30.80
2018-01-13T02:50:45.957Z,33.40
2018-01-13T02:53:14.231Z,35.75
2018-01-13T02:55:42.523Z,29.67
2018-01-13T02:58:10.029Z,29.73
2018-01-13T03:00:37.557Z,29.12
2018-01-13T03:03:05.056Z,30.37
2018-01-13T03:05:32.573Z,31.25
2018-01-13T03:08:00.084Z,26.48
2018-01-13T03:10:27.592Z,30.58
2018-01-13T03:12:55.108Z,35.00
2018-01-13T03:15:22.609Z,34.90
2018-01-13T03:17:50.141Z,30.75
2018-01-13T03:20:18.420Z,24.33
2018-01-13T03:22:46.721Z,31.98
2018-01-13T03:25:14.225Z,28.35
2018-01-13T03:27:41.740Z,30.15
2018-01-13T03:30:09.280Z,34.15
2018-01-13T03:32:36.809Z,28.02
2018-01-13T03:35:04.336Z,30.58
2018-01-13T03:37:31.832Z,30.58
2018-01-13T03:39:59.349Z,34.60
2018-01-13T03:42:26.861Z,31.60
2018-01-13T03:44:54.384Z,35.28
2018-01-13T03:47:21.900Z,27.83
2018-01-13T03:49:50.193Z,34.80
2018-01-13T03:52:17.710Z,27.95
2018-01-13T03:54:45.208Z,32.63
2018-01-13T03:57:12.741Z,28.33
2018-01-13T03:59:40.240Z,36.33
2018-01-13T04:02:07.755Z,36.03
2018-01-13T04:04:35.260Z,30.45
2018-01-13T04:07:02.782Z,26.23
2018-01-13T04:09:30.294Z,34.00
2018-01-13T04:11:57.810Z,26.30
2018-01-13T04:14:26.113Z,33.58
2018-01-13T04:16:53.617Z,31.65
2018-01-13T04:19:21.141Z,28.10
2018-01-13T04:21:48.651Z,25.27
2018-01-13T04:24:16.174Z,30.83
2018-01-13T04:26:43.685Z,29.27
2018-01-13T04:29:11.956Z,29.12
2018-01-13T04:31:40.249Z,31.73
2018-01-13T04:34:08.526Z,28.60
2018-01-13T04:36:36.817Z,33.10
2018-01-13T04:39:04.346Z,34.13
2018-01-13T04:41:31.868Z,31.73
2018-01-13T04:43:59.372Z,29.60
2018-01-13T04:46:27.633Z,27.27
2018-01-13T04:48:55.155Z,26.37
2018-01-13T04:51:22.660Z,32.33
2018-01-13T04:53:50.188Z,27.87
2018-01-13T04:56:17.684Z,26.77
2018-01-13T04:58:45.970Z,22.52
2018-01-13T05:01:14.232Z,23.10
2018-01-13T05:03:42.502Z,19.50
2018-01-13T05:06:10.063Z,22.90
2018-01-13T05:08:37.550Z,18.02
2018-01-13T05:11:05.071Z,24.60
2018-01-13T05:13:32.576Z,29.60
2018-01-13T05:16:00.099Z,23.50
2018-01-13T05:18:27.591Z,23.55
2018-01-13T05:20:55.091Z,27.10
2018-01-13T05:23:22.614Z,21.15
2018-01-13T05:25:50.115Z,23.98
2018-01-13T05:28:17.623Z,27.27
2018-01-13T05:30:46.004Z,26.75
2018-01-13T05:33:13.535Z,25.77
2018-01-13T05:35:41.050Z,29.95
2018-01-13T05:38:08.568Z,22.80
2018-01-13T05:40:36.836Z,27.52
2018-01-13T05:43:05.108Z,31.90
2018-01-13T05:45:32.622Z,29.48
2018-01-13T05:48:00.125Z,26.85
2018-01-13T05:50:27.656Z,28.95
2018-01-13T05:52:55.160Z,25.35
2018-01-13T05:55:23.448Z,23.75
2018-01-13T05:57:51.718Z,25.65
2018-01-13T06:00:20.005Z,28.12
2018-01-13T06:02:48.325Z,28.40
2018-01-13T06:05:15.844Z,23.65
2018-01-13T06:07:44.110Z,28.90
2018-01-13T06:10:12.408Z,31.50
2018-01-13T06:12:39.921Z,31.40
2018-01-13T06:15:07.460Z,32.42
2018-01-13T06:17:34.969Z,27.95
2018-01-13T06:20:03.254Z,26.67
2018-01-13T06:22:30.760Z,31.55
2018-01-13T06:24:58.270Z,32.83
2018-01-13T06:27:26.571Z,28.73
2018-01-13T06:29:54.079Z,29.23
2018-01-13T06:32:21.605Z,34.05
2018-01-13T06:34:49.115Z,24.63
2018-01-13T06:37:17.417Z,26.90
2018-01-13T06:39:44.934Z,24.08
2018-01-13T06:42:12.624Z,26.05
2018-01-13T06:44:40.133Z,29.87
2018-01-13T06:47:07.649Z,28.50
2018-01-13T06:49:35.924Z,28.38
2018-01-13T06:52:04.211Z,26.40
2018-01-13T06:54:31.779Z,32.22
2018-01-13T06:57:00.590Z,24.95
2018-01-13T06:59:29.962Z,26.00
2018-01-13T07:01:57.524Z,30.30
2018-01-13T07:04:25.083Z,29.85
2018-01-13T07:06:52.600Z,26.95
2018-01-13T07:09:20.122Z,30.62
2018-01-13T07:11:47.628Z,32.13
2018-01-13T07:14:15.151Z,31.42
2018-01-13T07:16:42.736Z,31.50
2018-01-13T07:19:11.254Z,31.45
2018-01-13T07:21:39.536Z,33.03
2018-01-13T07:24:07.816Z,31.70
2018-01-13T07:26:36.099Z,25.70
2018-01-13T07:29:04.361Z,23.30
2018-01-13T07:31:32.670Z,29.42
2018-01-13T07:34:00.173Z,32.75
2018-01-13T07:36:27.696Z,32.30
2018-01-13T07:38:55.208Z,34.03
2018-01-13T07:41:22.748Z,30.48
2018-01-13T07:43:50.267Z,31.33
2018-01-13T07:46:17.788Z,29.37
2018-01-13T07:48:46.077Z,24.55
2018-01-13T07:51:14.352Z,25.42
2018-01-13T07:53:42.635Z,28.35
2018-01-13T07:56:10.133Z,30.30
2018-01-13T07:58:37.669Z,29.08
2018-01-13T08:01:05.179Z,29.00
2018-01-13T08:03:32.699Z,27.75
2018-01-13T08:06:00.445Z,29.95
2018-01-13T08:08:28.919Z,28.50
2018-01-13T08:10:57.212Z,28.70
2018-01-13T08:13:27.176Z,30.37
2018-01-13T08:15:54.916Z,34.33
2018-01-13T08:18:25.096Z,35.20
2018-01-13T08:20:59.656Z,24.77
2018-01-13T08:23:27.317Z,31.23
2018-01-13T08:26:07.617Z,26.30
2018-01-13T08:28:38.180Z,27.37
2018-01-13T08:31:06.474Z,27.62
2018-01-13T08:33:34.068Z,27.05
2018-01-13T08:36:01.646Z,29.27
2018-01-13T08:38:30.783Z,27.87
2018-01-13T08:40:58.323Z,28.60
2018-01-13T08:43:25.881Z,26.92
2018-01-13T08:45:53.441Z,32.65
2018-01-13T08:48:24.793Z,33.25
2018-01-13T08:50:55.362Z,26.05
2018-01-13T08:53:23.025Z,30.08
2018-01-13T08:55:50.588Z,32.63
2018-01-13T08:58:20.261Z,31.23
2018-01-13T09:00:52.928Z,34.63
2018-01-13T09:03:20.633Z,25.65
2018-01-13T09:05:48.165Z,30.17
2018-01-13T09:08:15.695Z,24.33
2018-01-13T09:10:43.220Z,30.37
2018-01-13T09:13:10.781Z,31.27
2018-01-13T09:15:38.346Z,29.00
2018-01-13T09:18:05.872Z,32.00
2018-01-13T09:20:34.320Z,31.98
2018-01-13T09:23:02.810Z,28.45
2018-01-13T09:25:30.362Z,26.30
2018-01-13T09:27:58.733Z,30.52
2018-01-13T09:30:27.160Z,27.20
2018-01-13T09:32:55.496Z,33.03
2018-01-13T09:35:23.116Z,25.20
2018-01-13T09:37:50.653Z,25.83
2018-01-13T09:40:18.985Z,24.87
2018-01-13T09:42:46.647Z,26.05
2018-01-13T09:45:14.229Z,31.17
2018-01-13T09:47:41.800Z,30.95
2018-01-13T09:50:09.367Z,30.15
2018-01-13T09:52:36.978Z,29.65
2018-01-13T09:55:05.129Z,29.00
2018-01-13T09:57:33.457Z,30.75
2018-01-13T10:00:00.999Z,30.52
2018-01-13T10:02:28.509Z,32.17
2018-01-13T10:04:56.825Z,31.17
2018-01-13T10:07:24.336Z,31.50
2018-01-13T10:09:51.877Z,30.73
2018-01-13T10:12:19.424Z,30.45
2018-01-13T10:14:46.968Z,31.70
2018-01-13T10:17:14.513Z,32.90
2018-01-13T10:19:42.081Z,29.08
2018-01-13T10:22:09.632Z,37.58
2018-01-13T10:24:37.154Z,29.27
2018-01-13T10:27:04.697Z,37.33
2018-01-13T10:29:32.243Z,26.12
2018-01-13T10:31:59.770Z,33.33
2018-01-13T10:34:27.305Z,38.83
2018-01-13T10:36:55.699Z,30.17
2018-01-13T10:39:23.242Z,36.40
2018-01-13T10:41:50.756Z,31.02
2018-01-13T10:44:18.308Z,40.20
2018-01-13T10:46:45.827Z,35.60
2018-01-13T10:49:14.138Z,37.70
2018-01-13T10:51:41.639Z,34.45
2018-01-13T10:54:09.208Z,30.88
2018-01-13T10:56:36.736Z,37.47
2018-01-13T10:59:04.264Z,32.22
2018-01-13T11:01:31.786Z,39.67
2018-01-13T11:03:59.329Z,33.58
2018-01-13T11:06:27.702Z,39.75
2018-01-13T11:08:55.240Z,35.20
2018-01-13T11:11:22.765Z,33.25
2018-01-13T11:13:50.279Z,45.80
2018-01-13T11:16:17.853Z,30.52
2018-01-13T11:18:46.634Z,34.10
2018-01-13T11:21:14.955Z,36.97
2018-01-13T11:23:43.296Z,28.98
2018-01-13T11:26:10.863Z,33.47
2018-01-13T11:28:38.411Z,34.00
2018-01-13T11:31:05.977Z,33.13
2018-01-13T11:33:33.509Z,31.42
2018-01-13T11:36:01.466Z,32.08
2018-01-13T11:38:28.984Z,32.95
2018-01-13T11:40:56.532Z,31.42
2018-01-13T11:43:24.048Z,30.60
2018-01-13T11:45:51.573Z,30.30
2018-01-13T11:48:19.921Z,33.97
2018-01-13T11:50:47.456Z,33.95
2018-01-13T11:53:15.017Z,30.15
2018-01-13T11:55:42.584Z,28.75
2018-01-13T11:58:10.139Z,28.08
2018-01-13T12:00:38.585Z,28.87
2018-01-13T12:03:06.151Z,26.67
2018-01-13T12:05:34.896Z,27.73
2018-01-13T12:08:02.555Z,24.73
2018-01-13T12:10:31.125Z,28.23
2018-01-13T12:12:59.639Z,23.48
2018-01-13T12:15:28.545Z,29.15
2018-01-13T12:17:57.091Z,26.30
2018-01-13T12:20:25.306Z,26.55
2018-01-13T12:22:54.602Z,25.50
2018-01-13T12:25:22.171Z,28.50
2018-01-13T12:27:49.815Z,25.70
2018-01-13T12:30:17.374Z,27.98
2018-01-13T12:32:44.962Z,30.15
2018-01-13T12:35:13.270Z,29.63
2018-01-13T12:37:40.820Z,26.87
2018-01-13T12:40:09.245Z,22.40
2018-01-13T12:42:36.909Z,25.62
2018-01-13T12:45:04.518Z,29.20
2018-01-13T12:47:32.179Z,26.65
2018-01-13T12:50:01.578Z,32.38
2018-01-13T12:52:29.966Z,28.83
2018-01-13T12:54:57.717Z,27.35
2018-01-13T12:57:25.570Z,32.13
2018-01-13T12:59:54.068Z,29.48
2018-01-13T13:02:24.782Z,33.85
2018-01-13T13:04:52.532Z,31.35
2018-01-13T13:07:20.737Z,29.92
2018-01-13T13:09:50.147Z,27.30
2018-01-13T13:12:17.664Z,33.70
2018-01-13T13:14:45.185Z,34.72
2018-01-13T13:17:12.781Z,38.28
2018-01-13T13:19:40.295Z,31.92
2018-01-13T13:22:07.851Z,30.20
2018-01-13T13:24:35.465Z,27.42
2018-01-13T13:27:03.737Z,30.55
2018-01-13T13:29:32.424Z,32.80
2018-01-13T13:31:59.958Z,30.33
2018-01-13T13:34:27.557Z,33.17
2018-01-13T13:36:55.109Z,34.15
2018-01-13T13:39:22.868Z,30.25
2018-01-13T13:41:51.441Z,29.67
2018-01-13T13:44:20.390Z,29.45
2018-01-13T13:46:48.790Z,30.52
2018-01-13T13:49:18.139Z,31.23
2018-01-13T13:51:45.753Z,25.17
2018-01-13T13:54:14.131Z,26.85
2018-01-13T13:56:42.493Z,26.65
2018-01-13T13:59:11.017Z,27.40
2018-01-13T14:01:38.569Z,26.77
2018-01-13T14:04:06.109Z,38.28
2018-01-13T14:06:34.445Z,28.95
2018-01-13T14:09:04.017Z,26.12
2018-01-13T14:11:31.582Z,24.90
2018-01-13T14:13:59.089Z,28.42
2018-01-13T14:16:26.649Z,31.45
2018-01-13T14:19:04.798Z,32.28
2018-01-13T14:21:33.098Z,33.83
2018-01-13T14:24:00.632Z,29.35
2018-01-13T14:26:28.917Z,32.97
2018-01-13T14:29:01.180Z,31.77
2018-01-13T14:31:28.688Z,29.95
2018-01-13T14:33:56.228Z,34.75
2018-01-13T14:36:23.738Z,32.75
2018-01-13T14:38:57.940Z,29.08
2018-01-13T14:41:25.468Z,27.77
2018-01-13T14:43:53.083Z,26.20
2018-01-13T14:46:21.393Z,31.95
2018-01-13T14:48:50.176Z,29.05
2018-01-13T14:51:17.702Z,34.97
2018-01-13T14:53:45.217Z,29.08
2018-01-13T14:56:12.752Z,31.73
2018-01-13T14:58:40.961Z,30.80
2018-01-13T15:01:08.497Z,38.38
2018-01-13T15:03:36.027Z,30.70
2018-01-13T15:06:03.601Z,33.35
2018-01-13T15:08:31.880Z,30.80
2018-01-13T15:11:00.172Z,31.37
2018-01-13T15:13:27.708Z,34.70
2018-01-13T15:15:55.988Z,33.45
2018-01-13T15:18:24.295Z,29.30
2018-01-13T15:20:51.817Z,28.45
2018-01-13T15:23:19.535Z,30.83
2018-01-13T15:25:47.053Z,36.22
2018-01-13T15:28:14.592Z,38.40
2018-01-13T15:30:42.110Z,33.95
2018-01-13T15:33:09.647Z,32.65
2018-01-13T15:35:37.159Z,28.27
2018-01-13T15:38:04.687Z,26.67
2018-01-13T15:40:32.201Z,33.00
2018-01-13T15:43:00.489Z,30.58
2018-01-13T15:45:28.778Z,33.88
2018-01-13T15:47:56.300Z,43.72
2018-01-13T15:50:23.841Z,32.67
2018-01-13T15:52:51.368Z,36.17
2018-01-13T15:55:18.897Z,33.53
2018-01-13T15:57:54.530Z,35.17
2018-01-13T16:00:22.716Z,35.58
2018-01-13T16:02:50.248Z,37.22
2018-01-13T16:05:17.759Z,32.70
2018-01-13T16:07:45.288Z,38.30
2018-01-13T16:10:12.789Z,32.85
2018-01-13T16:12:40.318Z,34.95
2018-01-13T16:15:07.819Z,35.17
2018-01-13T16:17:35.355Z,33.20
2018-01-13T16:20:02.864Z,33.83
2018-01-13T16:22:30.394Z,35.03
2018-01-13T16:24:57.901Z,37.40
2018-01-13T16:27:25.549Z,38.67
2018-01-13T16:29:55.132Z,35.25
2018-01-13T16:32:22.713Z,31.73
2018-01-13T16:34:50.264Z,35.70
2018-01-13T16:37:17.793Z,42.53
2018-01-13T16:39:45.329Z,41.50
2018-01-13T16:42:12.853Z,34.75
2018-01-13T16:44:40.385Z,35.60
2018-01-13T16:47:07.891Z,33.90
2018-01-13T16:49:35.400Z,32.47
2018-01-13T16:52:02.930Z,36.15
2018-01-13T16:54:30.442Z,41.40
2018-01-13T16:56:57.965Z,35.88
2018-01-13T16:59:26.257Z,38.67
2018-01-13T17:01:53.808Z,34.30
2018-01-13T17:04:21.313Z,31.45
2018-01-13T17:06:48.851Z,38.70
2018-01-13T17:09:16.370Z,41.53
2018-01-13T17:11:44.648Z,35.42
2018-01-13T17:14:12.941Z,35.20
2018-01-13T17:16:41.224Z,37.92
2018-01-13T17:19:08.772Z,37.22
2018-01-13T17:21:37.045Z,36.53
2018-01-13T17:24:04.577Z,35.70
2018-01-13T17:26:32.156Z,39.38
2018-01-13T17:29:06.076Z,40.10
2018-01-13T17:31:34.354Z,40.42
2018-01-13T17:34:02.641Z,36.22
2018-01-13T17:36:30.166Z,32.13
2018-01-13T17:38:57.679Z,36.42
2018-01-13T17:41:25.209Z,35.33
2018-01-13T17:43:53.480Z,41.63
2018-01-13T17:46:21.786Z,37.85
2018-01-13T17:48:49.287Z,39.72
2018-01-13T17:51:16.813Z,34.53
2018-01-13T17:53:44.324Z,36.50
2018-01-13T17:56:11.853Z,33.30
2018-01-13T17:58:39.405Z,34.42
2018-01-13T18:01:06.921Z,33.78
2018-01-13T18:03:35.216Z,36.22
2018-01-13T18:06:03.614Z,32.17
2018-01-13T18:08:34.456Z,34.88
2018-01-13T18:11:02.016Z,34.75
2018-01-13T18:13:29.562Z,33.10
2018-01-13T18:15:57.845Z,35.90
2018-01-13T18:18:25.372Z,34.40
2018-01-13T18:20:55.640Z,32.28
2018-01-13T18:23:23.172Z,36.92
2018-01-13T18:25:50.716Z,36.13
2018-01-13T18:28:18.987Z,32.00
2018-01-13T18:30:46.516Z,32.35
2018-01-13T18:33:14.016Z,30.75
2018-01-13T18:35:42.296Z,35.38
2018-01-13T18:38:10.564Z,29.80
2018-01-13T18:40:38.857Z,28.65
2018-01-13T18:43:06.357Z,28.75
2018-01-13T18:45:33.866Z,29.75
2018-01-13T18:48:02.156Z,25.83
2018-01-13T18:50:29.661Z,30.10
2018-01-13T18:52:57.180Z,31.02
2018-01-13T18:55:25.227Z,31.10
2018-01-13T18:57:52.767Z,32.97
2018-01-13T19:00:21.407Z,26.23
2018-01-13T19:02:49.402Z,35.28
2018-01-13T19:05:16.904Z,26.25
2018-01-13T19:07:44.509Z,25.80
2018-01-13T19:10:13.074Z,32.25
2018-01-13T19:12:40.605Z,29.50
2018-01-13T19:15:08.180Z,37.60
2018-01-13T19:17:36.530Z,30.75
2018-01-13T19:20:04.089Z,32.10
2018-01-13T19:22:31.642Z,32.78
2018-01-13T19:24:59.156Z,37.00
2018-01-13T19:27:26.674Z,28.33
2018-01-13T19:29:54.199Z,34.47
2018-01-13T19:32:21.704Z,32.78
2018-01-13T19:34:49.508Z,34.65
2018-01-13T19:37:17.026Z,30.33
2018-01-13T19:39:45.341Z,27.17
2018-01-13T19:42:12.853Z,32.33
2018-01-13T19:44:40.368Z,32.60
2018-01-13T19:47:07.901Z,33.78
2018-01-13T19:49:36.176Z,31.00
2018-01-13T19:52:04.522Z,35.95
2018-01-13T19:54:32.816Z,33.28
2018-01-13T19:57:01.112Z,30.37
2018-01-13T19:59:29.381Z,28.38
2018-01-13T20:01:57.678Z,35.17
2018-01-13T20:04:25.212Z,34.22
2018-01-13T20:06:53.492Z,28.08
2018-01-13T20:09:21.016Z,27.23
2018-01-13T20:11:48.526Z,31.80
2018-01-13T20:14:16.831Z,33.67
2018-01-13T20:16:44.400Z,27.37
2018-01-13T20:19:11.976Z,33.75
2018-01-13T20:21:39.490Z,30.10
2018-01-13T20:24:07.782Z,32.65
2018-01-13T20:26:35.288Z,31.77
2018-01-13T20:29:02.793Z,29.08
2018-01-13T20:31:30.341Z,33.45
2018-01-13T20:33:58.703Z,27.70
2018-01-13T20:36:26.229Z,33.00
2018-01-13T20:38:53.732Z,29.23
2018-01-13T20:41:22.034Z,31.90
2018-01-13T20:43:49.553Z,32.15
2018-01-13T20:46:17.080Z,29.58
2018-01-13T20:48:47.949Z,30.45
2018-01-13T20:51:15.480Z,33.78
2018-01-13T20:53:42.994Z,35.40
2018-01-13T20:56:10.518Z,37.47
2018-01-13T20:58:38.057Z,31.50
2018-01-13T21:01:05.585Z,33.58
2018-01-13T21:03:33.108Z,33.85
2018-01-13T21:06:00.820Z,32.55
2018-01-13T21:08:30.577Z,30.50
2018-01-13T21:10:58.232Z,39.28
2018-01-13T21:13:25.772Z,35.90
2018-01-13T21:15:53.287Z,33.20
2018-01-13T21:18:21.605Z,37.63
2018-01-13T21:20:49.123Z,37.42
2018-01-13T21:23:17.400Z,36.72
2018-01-13T21:25:45.713Z,36.33
2018-01-13T21:28:13.247Z,35.50
2018-01-13T21:30:40.792Z,49.40
2018-01-13T21:33:08.299Z,41.92
2018-01-13T21:35:35.834Z,37.78
2018-01-13T21:38:03.350Z,41.35
2018-01-13T21:40:30.874Z,40.58
2018-01-13T21:42:58.597Z,36.80
2018-01-13T21:45:26.886Z,34.05
2018-01-13T21:47:55.183Z,34.95
2018-01-13T21:50:22.692Z,36.53
2018-01-13T21:52:50.252Z,33.38
2018-01-13T21:55:17.755Z,39.13
2018-01-13T21:57:45.277Z,31.70
2018-01-13T22:00:12.792Z,36.80
2018-01-13T22:02:40.303Z,30.77
2018-01-13T22:05:07.849Z,36.92
2018-01-13T22:07:35.376Z,40.12
2018-01-13T22:10:02.894Z,41.33
2018-01-13T22:12:31.171Z,34.70
2018-01-13T22:14:59.479Z,36.72
2018-01-13T22:17:26.986Z,40.33
2018-01-13T22:19:55.501Z,35.38
2018-01-13T22:22:23.780Z,33.03
2018-01-13T22:24:52.084Z,36.45
2018-01-13T22:27:19.616Z,41.20
2018-01-13T22:29:48.905Z,39.05
2018-01-13T22:32:17.213Z,40.22
2018-01-13T22:34:44.723Z,39.63
2018-01-13T22:37:12.253Z,30.40
2018-01-13T22:39:39.795Z,37.40
2018-01-13T22:42:07.325Z,41.83
2018-01-13T22:44:35.594Z,32.88
2018-01-13T22:47:03.119Z,35.10
2018-01-13T22:49:31.647Z,38.78
2018-01-13T22:52:00.278Z,35.58
2018-01-13T22:54:27.799Z,35.45
2018-01-13T22:56:55.298Z,35.30
2018-01-13T22:59:22.833Z,34.10
2018-01-13T23:01:50.348Z,30.23
2018-01-13T23:04:17.885Z,27.77
2018-01-13T23:06:45.412Z,41.88
2018-01-13T23:09:12.952Z,36.90
2018-01-13T23:11:41.232Z,32.58
2018-01-13T23:14:09.580Z,35.47
2018-01-13T23:16:37.085Z,36.53
2018-01-13T23:19:04.657Z,35.10
2018-01-13T23:21:33.117Z,36.30
2018-01-13T23:24:01.385Z,36.42
2018-01-13T23:26:29.680Z,36.05
2018-01-13T23:28:57.196Z,33.38
2018-01-13T23:31:24.717Z,34.75
2018-01-13T23:33:52.228Z,32.80
2018-01-13T23:36:19.752Z,39.47
2018-01-13T23:38:48.272Z,35.83
2018-01-13T23:41:15.797Z,35.45
2018-01-13T23:43:43.324Z,42.15
2018-01-13T23:46:10.840Z,34.38
2018-01-13T23:48:38.367Z,38.60
2018-01-13T23:51:09.711Z,40.88
2018-01-13T23:53:37.228Z,33.22
2018-01-13T23:56:05.508Z,37.75
2018-01-13T23:58:33.858Z,40.00
